sensor_id;sensor_type;location;lat;lon;timestamp;temperature;humidity
26541;DHT22;14206;50.202;10.948;2023-04-24T00:01:07;11.40;96.60
26541;DHT22;14206;50.202;10.948;2023-04-24T00:03:34;11.40;96.60
26541;DHT22;14206;50.202;10.948;2023-04-24T00:06:02;11.40;96.60
26541;DHT22;14206;50.202;10.948;2023-04-24T00:08:29;11.40;96.60
26541;DHT22;14206;50.202;10.948;2023-04-24T00:10:56;11.30;96.60
26541;DHT22;14206;50.202;10.948;2023-04-24T00:13:23;11.30;96.60
26541;DHT22;14206;50.202;10.948;2023-04-24T00:15:50;11.30;96.60
26541;DHT22;14206;50.202;10.948;2023-04-24T00:18:17;11.30;96.60
26541;DHT22;14206;50.202;10.948;2023-04-24T00:20:44;11.30;96.60
26541;DHT22;14206;50.202;10.948;2023-04-24T00:23:11;11.30;96.60
26541;DHT22;14206;50.202;10.948;2023-04-24T00:25:38;11.30;96.60
26541;DHT22;14206;50.202;10.948;2023-04-24T00:28:05;11.40;96.60
26541;DHT22;14206;50.202;10.948;2023-04-24T00:30:32;11.40;96.60
26541;DHT22;14206;50.202;10.948;2023-04-24T00:32:59;11.40;96.60
26541;DHT22;14206;50.202;10.948;2023-04-24T00:35:26;11.50;96.60
26541;DHT22;14206;50.202;10.948;2023-04-24T00:37:53;11.50;96.60
26541;DHT22;14206;50.202;10.948;2023-04-24T00:40:20;11.50;96.60
26541;DHT22;14206;50.202;10.948;2023-04-24T00:42:46;11.50;96.60
26541;DHT22;14206;50.202;10.948;2023-04-24T00:45:14;11.60;96.60
26541;DHT22;14206;50.202;10.948;2023-04-24T00:47:41;11.50;96.60
26541;DHT22;14206;50.202;10.948;2023-04-24T00:50:09;11.50;96.60
26541;DHT22;14206;50.202;10.948;2023-04-24T00:52:36;11.50;96.60
26541;DHT22;14206;50.202;10.948;2023-04-24T00:55:04;11.50;96.60
26541;DHT22;14206;50.202;10.948;2023-04-24T00:57:32;11.40;96.60
26541;DHT22;14206;50.202;10.948;2023-04-24T00:59:59;11.30;96.60
26541;DHT22;14206;50.202;10.948;2023-04-24T01:02:26;11.20;96.60
26541;DHT22;14206;50.202;10.948;2023-04-24T01:04:53;11.20;96.60
26541;DHT22;14206;50.202;10.948;2023-04-24T01:07:20;11.20;96.60
26541;DHT22;14206;50.202;10.948;2023-04-24T01:09:50;11.20;96.60
26541;DHT22;14206;50.202;10.948;2023-04-24T01:12:19;11.20;96.60
26541;DHT22;14206;50.202;10.948;2023-04-24T01:14:46;11.20;96.60
26541;DHT22;14206;50.202;10.948;2023-04-24T01:17:15;11.20;96.60
26541;DHT22;14206;50.202;10.948;2023-04-24T01:19:42;11.20;96.60
26541;DHT22;14206;50.202;10.948;2023-04-24T01:22:13;11.20;96.60
26541;DHT22;14206;50.202;10.948;2023-04-24T01:24:41;11.20;96.60
26541;DHT22;14206;50.202;10.948;2023-04-24T01:27:11;11.20;96.60
26541;DHT22;14206;50.202;10.948;2023-04-24T01:29:39;11.20;96.60
26541;DHT22;14206;50.202;10.948;2023-04-24T01:32:09;11.20;96.60
26541;DHT22;14206;50.202;10.948;2023-04-24T01:34:36;11.20;96.60
26541;DHT22;14206;50.202;10.948;2023-04-24T01:37:03;11.20;96.60
26541;DHT22;14206;50.202;10.948;2023-04-24T01:39:32;11.20;96.60
26541;DHT22;14206;50.202;10.948;2023-04-24T01:42:00;11.20;96.60
26541;DHT22;14206;50.202;10.948;2023-04-24T01:44:27;11.20;96.60
26541;DHT22;14206;50.202;10.948;2023-04-24T01:46:55;11.20;96.60
26541;DHT22;14206;50.202;10.948;2023-04-24T01:49:23;11.20;96.60
26541;DHT22;14206;50.202;10.948;2023-04-24T01:51:49;11.20;96.60
26541;DHT22;14206;50.202;10.948;2023-04-24T01:54:16;11.20;96.60
26541;DHT22;14206;50.202;10.948;2023-04-24T01:56:43;11.20;96.60
26541;DHT22;14206;50.202;10.948;2023-04-24T01:59:11;11.30;96.60
26541;DHT22;14206;50.202;10.948;2023-04-24T02:01:39;11.30;96.60
26541;DHT22;14206;50.202;10.948;2023-04-24T02:04:07;11.30;96.60
26541;DHT22;14206;50.202;10.948;2023-04-24T02:06:36;11.40;96.60
26541;DHT22;14206;50.202;10.948;2023-04-24T02:09:03;11.40;96.60
26541;DHT22;14206;50.202;10.948;2023-04-24T02:11:30;11.40;96.60
26541;DHT22;14206;50.202;10.948;2023-04-24T02:13:57;11.40;96.60
26541;DHT22;14206;50.202;10.948;2023-04-24T02:16:24;11.40;96.60
26541;DHT22;14206;50.202;10.948;2023-04-24T02:18:51;11.40;96.60
26541;DHT22;14206;50.202;10.948;2023-04-24T02:21:18;11.30;96.60
26541;DHT22;14206;50.202;10.948;2023-04-24T02:23:45;11.30;96.60
26541;DHT22;14206;50.202;10.948;2023-04-24T02:26:12;11.20;96.60
26541;DHT22;14206;50.202;10.948;2023-04-24T02:28:39;11.20;96.60
26541;DHT22;14206;50.202;10.948;2023-04-24T02:31:06;11.10;96.60
26541;DHT22;14206;50.202;10.948;2023-04-24T02:33:33;11.10;96.60
26541;DHT22;14206;50.202;10.948;2023-04-24T02:36:00;11.00;96.60
26541;DHT22;14206;50.202;10.948;2023-04-24T02:38:27;11.00;96.60
26541;DHT22;14206;50.202;10.948;2023-04-24T02:40:54;11.00;96.60
26541;DHT22;14206;50.202;10.948;2023-04-24T02:43:21;10.90;96.60
26541;DHT22;14206;50.202;10.948;2023-04-24T02:45:48;10.90;96.60
26541;DHT22;14206;50.202;10.948;2023-04-24T02:48:15;10.90;96.60
26541;DHT22;14206;50.202;10.948;2023-04-24T02:50:44;10.90;96.60
26541;DHT22;14206;50.202;10.948;2023-04-24T02:53:11;10.90;96.60
26541;DHT22;14206;50.202;10.948;2023-04-24T02:55:38;10.80;96.60
26541;DHT22;14206;50.202;10.948;2023-04-24T02:58:05;10.80;96.60
26541;DHT22;14206;50.202;10.948;2023-04-24T03:00:33;10.80;96.60
26541;DHT22;14206;50.202;10.948;2023-04-24T03:02:59;10.80;96.60
26541;DHT22;14206;50.202;10.948;2023-04-24T03:05:27;10.80;96.60
26541;DHT22;14206;50.202;10.948;2023-04-24T03:07:54;10.90;96.60
26541;DHT22;14206;50.202;10.948;2023-04-24T03:10:21;10.80;96.60
26541;DHT22;14206;50.202;10.948;2023-04-24T03:12:49;10.80;96.60
26541;DHT22;14206;50.202;10.948;2023-04-24T03:15:17;10.80;96.60
26541;DHT22;14206;50.202;10.948;2023-04-24T03:22:08;10.80;96.60
26541;DHT22;14206;50.202;10.948;2023-04-24T03:24:37;11.00;96.60
26541;DHT22;14206;50.202;10.948;2023-04-24T03:27:04;11.00;96.60
26541;DHT22;14206;50.202;10.948;2023-04-24T03:29:53;11.00;96.60
26541;DHT22;14206;50.202;10.948;2023-04-24T03:32:26;11.10;96.60
26541;DHT22;14206;50.202;10.948;2023-04-24T03:34:53;11.10;96.60
26541;DHT22;14206;50.202;10.948;2023-04-24T03:37:20;11.10;96.60
26541;DHT22;14206;50.202;10.948;2023-04-24T03:40:02;11.10;96.60
26541;DHT22;14206;50.202;10.948;2023-04-24T03:42:29;11.10;96.60
26541;DHT22;14206;50.202;10.948;2023-04-24T03:44:56;11.10;96.60
26541;DHT22;14206;50.202;10.948;2023-04-24T03:47:28;11.10;96.60
26541;DHT22;14206;50.202;10.948;2023-04-24T03:49:58;11.10;96.60
26541;DHT22;14206;50.202;10.948;2023-04-24T03:52:25;11.10;96.60
26541;DHT22;14206;50.202;10.948;2023-04-24T03:54:52;11.00;96.60
26541;DHT22;14206;50.202;10.948;2023-04-24T03:57:19;11.00;96.60
26541;DHT22;14206;50.202;10.948;2023-04-24T03:59:59;11.00;96.60
26541;DHT22;14206;50.202;10.948;2023-04-24T04:02:26;11.00;96.60
26541;DHT22;14206;50.202;10.948;2023-04-24T04:04:53;11.00;96.60
26541;DHT22;14206;50.202;10.948;2023-04-24T04:07:20;11.00;96.60
26541;DHT22;14206;50.202;10.948;2023-04-24T04:09:47;11.00;96.60
26541;DHT22;14206;50.202;10.948;2023-04-24T04:12:15;11.00;96.60
26541;DHT22;14206;50.202;10.948;2023-04-24T04:14:42;11.10;96.60
26541;DHT22;14206;50.202;10.948;2023-04-24T04:17:09;11.10;96.60
26541;DHT22;14206;50.202;10.948;2023-04-24T04:19:36;11.10;96.60
26541;DHT22;14206;50.202;10.948;2023-04-24T04:22:03;11.10;96.60
26541;DHT22;14206;50.202;10.948;2023-04-24T04:24:39;11.10;96.60
26541;DHT22;14206;50.202;10.948;2023-04-24T04:27:08;11.10;96.60
26541;DHT22;14206;50.202;10.948;2023-04-24T04:29:46;11.10;96.60
26541;DHT22;14206;50.202;10.948;2023-04-24T04:32:14;11.20;96.60
26541;DHT22;14206;50.202;10.948;2023-04-24T04:34:42;11.20;96.60
26541;DHT22;14206;50.202;10.948;2023-04-24T04:37:11;11.20;96.60
26541;DHT22;14206;50.202;10.948;2023-04-24T04:40:02;11.20;96.60
26541;DHT22;14206;50.202;10.948;2023-04-24T04:42:47;11.20;96.60
26541;DHT22;14206;50.202;10.948;2023-04-24T04:45:14;11.20;96.60
26541;DHT22;14206;50.202;10.948;2023-04-24T04:48:06;11.20;96.60
26541;DHT22;14206;50.202;10.948;2023-04-24T04:50:36;11.20;96.60
26541;DHT22;14206;50.202;10.948;2023-04-24T04:53:06;11.20;96.60
26541;DHT22;14206;50.202;10.948;2023-04-24T04:55:37;11.20;96.60
26541;DHT22;14206;50.202;10.948;2023-04-24T04:58:13;11.30;96.60
26541;DHT22;14206;50.202;10.948;2023-04-24T05:00:40;11.40;96.60
26541;DHT22;14206;50.202;10.948;2023-04-24T05:03:16;11.50;96.60
26541;DHT22;14206;50.202;10.948;2023-04-24T05:05:52;11.60;96.60
26541;DHT22;14206;50.202;10.948;2023-04-24T05:08:19;11.70;96.60
26541;DHT22;14206;50.202;10.948;2023-04-24T05:10:53;11.70;96.60
26541;DHT22;14206;50.202;10.948;2023-04-24T05:13:21;11.70;96.60
26541;DHT22;14206;50.202;10.948;2023-04-24T05:16:08;11.70;96.60
26541;DHT22;14206;50.202;10.948;2023-04-24T05:18:35;11.80;96.60
26541;DHT22;14206;50.202;10.948;2023-04-24T05:21:03;11.80;96.50
26541;DHT22;14206;50.202;10.948;2023-04-24T05:23:30;11.90;96.40
26541;DHT22;14206;50.202;10.948;2023-04-24T05:25:57;12.00;96.10
26541;DHT22;14206;50.202;10.948;2023-04-24T05:28:24;12.10;95.50
26541;DHT22;14206;50.202;10.948;2023-04-24T05:31:04;12.10;95.30
26541;DHT22;14206;50.202;10.948;2023-04-24T05:33:31;12.00;95.10
26541;DHT22;14206;50.202;10.948;2023-04-24T05:35:58;12.10;95.20
26541;DHT22;14206;50.202;10.948;2023-04-24T05:38:25;12.10;95.00
26541;DHT22;14206;50.202;10.948;2023-04-24T05:40:52;12.10;95.50
26541;DHT22;14206;50.202;10.948;2023-04-24T05:43:19;12.10;95.10
26541;DHT22;14206;50.202;10.948;2023-04-24T05:45:46;12.10;95.10
26541;DHT22;14206;50.202;10.948;2023-04-24T05:48:13;12.10;95.60
26541;DHT22;14206;50.202;10.948;2023-04-24T05:50:39;12.10;95.90
26541;DHT22;14206;50.202;10.948;2023-04-24T05:53:06;12.10;95.90
26541;DHT22;14206;50.202;10.948;2023-04-24T05:55:35;12.10;95.60
26541;DHT22;14206;50.202;10.948;2023-04-24T05:58:02;12.20;95.50
26541;DHT22;14206;50.202;10.948;2023-04-24T06:00:30;12.10;95.90
26541;DHT22;14206;50.202;10.948;2023-04-24T06:03:03;12.10;95.80
26541;DHT22;14206;50.202;10.948;2023-04-24T06:05:31;12.10;95.40
26541;DHT22;14206;50.202;10.948;2023-04-24T06:07:58;12.10;95.20
26541;DHT22;14206;50.202;10.948;2023-04-24T06:10:30;12.10;95.30
26541;DHT22;14206;50.202;10.948;2023-04-24T06:12:58;12.10;95.30
26541;DHT22;14206;50.202;10.948;2023-04-24T06:15:30;12.10;95.30
26541;DHT22;14206;50.202;10.948;2023-04-24T06:18:03;12.10;95.60
26541;DHT22;14206;50.202;10.948;2023-04-24T06:20:30;12.10;95.60
26541;DHT22;14206;50.202;10.948;2023-04-24T06:22:57;12.10;96.00
26541;DHT22;14206;50.202;10.948;2023-04-24T06:25:25;12.00;96.60
26541;DHT22;14206;50.202;10.948;2023-04-24T06:27:54;12.00;96.00
26541;DHT22;14206;50.202;10.948;2023-04-24T06:30:21;11.90;94.70
26541;DHT22;14206;50.202;10.948;2023-04-24T06:32:48;11.90;96.50
26541;DHT22;14206;50.202;10.948;2023-04-24T06:35:15;11.90;96.60
26541;DHT22;14206;50.202;10.948;2023-04-24T06:37:42;11.90;96.60
26541;DHT22;14206;50.202;10.948;2023-04-24T06:40:09;12.00;96.60
26541;DHT22;14206;50.202;10.948;2023-04-24T06:42:36;12.00;96.60
26541;DHT22;14206;50.202;10.948;2023-04-24T06:45:04;12.00;96.60
26541;DHT22;14206;50.202;10.948;2023-04-24T06:47:31;12.00;96.60
26541;DHT22;14206;50.202;10.948;2023-04-24T06:49:58;12.00;96.60
26541;DHT22;14206;50.202;10.948;2023-04-24T06:52:25;12.20;96.60
26541;DHT22;14206;50.202;10.948;2023-04-24T06:54:52;12.20;95.80
26541;DHT22;14206;50.202;10.948;2023-04-24T06:57:19;12.30;95.00
26541;DHT22;14206;50.202;10.948;2023-04-24T06:59:46;12.30;95.40
26541;DHT22;14206;50.202;10.948;2023-04-24T07:02:13;12.40;94.80
26541;DHT22;14206;50.202;10.948;2023-04-24T07:04:40;12.40;93.00
26541;DHT22;14206;50.202;10.948;2023-04-24T07:07:07;12.50;92.80
26541;DHT22;14206;50.202;10.948;2023-04-24T07:09:36;12.60;90.90
26541;DHT22;14206;50.202;10.948;2023-04-24T07:12:05;12.70;89.70
26541;DHT22;14206;50.202;10.948;2023-04-24T07:14:32;12.70;87.50
26541;DHT22;14206;50.202;10.948;2023-04-24T07:16:59;12.60;88.60
26541;DHT22;14206;50.202;10.948;2023-04-24T07:19:26;12.50;88.10
26541;DHT22;14206;50.202;10.948;2023-04-24T07:21:52;12.50;89.00
26541;DHT22;14206;50.202;10.948;2023-04-24T07:24:21;12.60;88.30
26541;DHT22;14206;50.202;10.948;2023-04-24T07:26:51;12.80;87.50
26541;DHT22;14206;50.202;10.948;2023-04-24T07:29:18;12.80;87.00
26541;DHT22;14206;50.202;10.948;2023-04-24T07:31:46;12.90;87.80
26541;DHT22;14206;50.202;10.948;2023-04-24T07:34:13;13.80;85.30
26541;DHT22;14206;50.202;10.948;2023-04-24T07:36:41;14.40;85.10
26541;DHT22;14206;50.202;10.948;2023-04-24T07:39:08;15.20;81.50
26541;DHT22;14206;50.202;10.948;2023-04-24T07:41:34;15.70;79.80
26541;DHT22;14206;50.202;10.948;2023-04-24T07:44:01;16.30;79.10
26541;DHT22;14206;50.202;10.948;2023-04-24T07:46:29;16.80;76.20
26541;DHT22;14206;50.202;10.948;2023-04-24T07:48:57;16.60;74.90
26541;DHT22;14206;50.202;10.948;2023-04-24T07:51:39;16.40;76.40
26541;DHT22;14206;50.202;10.948;2023-04-24T07:54:06;16.30;76.20
26541;DHT22;14206;50.202;10.948;2023-04-24T07:56:33;16.60;76.10
26541;DHT22;14206;50.202;10.948;2023-04-24T07:59:01;16.60;74.30
26541;DHT22;14206;50.202;10.948;2023-04-24T08:01:28;16.90;73.50
26541;DHT22;14206;50.202;10.948;2023-04-24T08:03:54;17.00;74.10
26541;DHT22;14206;50.202;10.948;2023-04-24T08:06:22;16.80;73.30
26541;DHT22;14206;50.202;10.948;2023-04-24T08:08:49;16.50;73.10
26541;DHT22;14206;50.202;10.948;2023-04-24T08:11:18;16.70;71.80
26541;DHT22;14206;50.202;10.948;2023-04-24T08:13:44;16.90;70.70
26541;DHT22;14206;50.202;10.948;2023-04-24T08:16:12;16.80;70.00
26541;DHT22;14206;50.202;10.948;2023-04-24T08:18:39;16.40;69.60
26541;DHT22;14206;50.202;10.948;2023-04-24T08:21:05;16.00;71.90
26541;DHT22;14206;50.202;10.948;2023-04-24T08:23:32;16.30;72.70
26541;DHT22;14206;50.202;10.948;2023-04-24T08:25:59;17.00;70.30
26541;DHT22;14206;50.202;10.948;2023-04-24T08:28:26;17.00;67.30
26541;DHT22;14206;50.202;10.948;2023-04-24T08:30:53;16.80;68.60
26541;DHT22;14206;50.202;10.948;2023-04-24T08:33:22;16.30;68.60
26541;DHT22;14206;50.202;10.948;2023-04-24T08:35:50;16.40;69.00
26541;DHT22;14206;50.202;10.948;2023-04-24T08:38:17;16.60;69.40
26541;DHT22;14206;50.202;10.948;2023-04-24T08:40:43;16.60;67.60
26541;DHT22;14206;50.202;10.948;2023-04-24T08:43:13;16.80;66.70
26541;DHT22;14206;50.202;10.948;2023-04-24T08:45:40;16.50;65.60
26541;DHT22;14206;50.202;10.948;2023-04-24T08:48:07;16.20;67.20
26541;DHT22;14206;50.202;10.948;2023-04-24T08:50:53;16.00;67.00
26541;DHT22;14206;50.202;10.948;2023-04-24T08:53:21;15.90;67.40
26541;DHT22;14206;50.202;10.948;2023-04-24T08:55:48;15.60;68.80
26541;DHT22;14206;50.202;10.948;2023-04-24T08:58:18;16.20;69.90
26541;DHT22;14206;50.202;10.948;2023-04-24T09:00:46;17.60;68.00
26541;DHT22;14206;50.202;10.948;2023-04-24T09:03:15;18.30;64.60
26541;DHT22;14206;50.202;10.948;2023-04-24T09:05:47;18.90;61.90
26541;DHT22;14206;50.202;10.948;2023-04-24T09:08:19;18.30;61.50
26541;DHT22;14206;50.202;10.948;2023-04-24T09:10:46;17.40;62.80
26541;DHT22;14206;50.202;10.948;2023-04-24T09:13:19;16.80;64.90
26541;DHT22;14206;50.202;10.948;2023-04-24T09:15:46;16.50;67.00
26541;DHT22;14206;50.202;10.948;2023-04-24T09:18:13;16.50;67.00
26541;DHT22;14206;50.202;10.948;2023-04-24T09:23:31;16.10;67.50
26541;DHT22;14206;50.202;10.948;2023-04-24T09:25:59;15.90;67.50
26541;DHT22;14206;50.202;10.948;2023-04-24T09:28:36;15.60;68.40
26541;DHT22;14206;50.202;10.948;2023-04-24T09:33:34;15.20;68.70
26541;DHT22;14206;50.202;10.948;2023-04-24T09:36:01;14.90;68.70
26541;DHT22;14206;50.202;10.948;2023-04-24T09:38:38;14.60;68.70
26541;DHT22;14206;50.202;10.948;2023-04-24T09:41:07;14.50;69.10
26541;DHT22;14206;50.202;10.948;2023-04-24T09:43:35;14.40;69.90
26541;DHT22;14206;50.202;10.948;2023-04-24T09:46:07;14.40;70.60
26541;DHT22;14206;50.202;10.948;2023-04-24T09:48:36;14.60;70.70
26541;DHT22;14206;50.202;10.948;2023-04-24T09:51:05;14.80;70.70
26541;DHT22;14206;50.202;10.948;2023-04-24T09:53:38;14.80;70.00
26541;DHT22;14206;50.202;10.948;2023-04-24T09:56:12;14.80;70.20
26541;DHT22;14206;50.202;10.948;2023-04-24T09:58:40;14.80;70.30
26541;DHT22;14206;50.202;10.948;2023-04-24T10:01:06;14.80;71.00
26541;DHT22;14206;50.202;10.948;2023-04-24T10:03:34;14.80;70.50
26541;DHT22;14206;50.202;10.948;2023-04-24T10:06:03;14.60;70.90
26541;DHT22;14206;50.202;10.948;2023-04-24T10:08:36;14.60;70.60
26541;DHT22;14206;50.202;10.948;2023-04-24T10:11:05;14.60;72.30
26541;DHT22;14206;50.202;10.948;2023-04-24T10:13:34;14.80;71.90
26541;DHT22;14206;50.202;10.948;2023-04-24T10:16:01;14.80;71.60
26541;DHT22;14206;50.202;10.948;2023-04-24T10:18:30;14.70;72.90
26541;DHT22;14206;50.202;10.948;2023-04-24T10:20:57;14.60;72.30
26541;DHT22;14206;50.202;10.948;2023-04-24T10:23:25;14.50;72.20
26541;DHT22;14206;50.202;10.948;2023-04-24T10:25:52;14.30;72.70
26541;DHT22;14206;50.202;10.948;2023-04-24T10:28:20;14.20;72.30
26541;DHT22;14206;50.202;10.948;2023-04-24T10:30:48;14.10;71.70
26541;DHT22;14206;50.202;10.948;2023-04-24T10:33:17;14.20;71.40
26541;DHT22;14206;50.202;10.948;2023-04-24T10:35:45;14.20;71.80
26541;DHT22;14206;50.202;10.948;2023-04-24T10:38:21;14.20;71.60
26541;DHT22;14206;50.202;10.948;2023-04-24T10:40:50;14.60;71.40
26541;DHT22;14206;50.202;10.948;2023-04-24T10:43:18;15.60;69.50
26541;DHT22;14206;50.202;10.948;2023-04-24T10:46:05;15.80;68.20
26541;DHT22;14206;50.202;10.948;2023-04-24T10:48:33;15.70;68.30
26541;DHT22;14206;50.202;10.948;2023-04-24T10:51:00;16.20;67.80
26541;DHT22;14206;50.202;10.948;2023-04-24T10:53:29;16.30;67.50
26541;DHT22;14206;50.202;10.948;2023-04-24T10:56:06;16.50;67.30
26541;DHT22;14206;50.202;10.948;2023-04-24T11:01:05;16.40;65.70
26541;DHT22;14206;50.202;10.948;2023-04-24T11:03:33;16.30;65.60
26541;DHT22;14206;50.202;10.948;2023-04-24T11:06:09;15.90;65.90
26541;DHT22;14206;50.202;10.948;2023-04-24T11:08:43;15.60;66.50
26541;DHT22;14206;50.202;10.948;2023-04-24T11:11:16;15.40;66.90
26541;DHT22;14206;50.202;10.948;2023-04-24T11:19:09;15.90;67.60
26541;DHT22;14206;50.202;10.948;2023-04-24T11:27:13;16.50;66.10
26541;DHT22;14206;50.202;10.948;2023-04-24T11:32:30;16.50;64.40
26541;DHT22;14206;50.202;10.948;2023-04-24T11:35:06;16.50;64.20
26541;DHT22;14206;50.202;10.948;2023-04-24T11:37:38;17.20;62.80
26541;DHT22;14206;50.202;10.948;2023-04-24T11:40:11;18.90;61.90
26541;DHT22;14206;50.202;10.948;2023-04-24T11:42:43;19.70;57.20
26541;DHT22;14206;50.202;10.948;2023-04-24T11:45:15;19.30;57.50
26541;DHT22;14206;50.202;10.948;2023-04-24T11:47:43;18.80;59.10
26541;DHT22;14206;50.202;10.948;2023-04-24T11:50:15;18.30;58.40
26541;DHT22;14206;50.202;10.948;2023-04-24T11:52:45;17.70;58.90
26541;DHT22;14206;50.202;10.948;2023-04-24T11:57:50;16.60;61.80
26541;DHT22;14206;50.202;10.948;2023-04-24T12:00:19;16.20;62.50
26541;DHT22;14206;50.202;10.948;2023-04-24T12:02:47;15.90;62.30
26541;DHT22;14206;50.202;10.948;2023-04-24T12:05:22;15.70;63.70
26541;DHT22;14206;50.202;10.948;2023-04-24T12:07:50;15.40;65.10
26541;DHT22;14206;50.202;10.948;2023-04-24T12:10:21;15.10;66.30
26541;DHT22;14206;50.202;10.948;2023-04-24T12:12:48;14.90;66.60
26541;DHT22;14206;50.202;10.948;2023-04-24T12:15:18;14.60;66.60
26541;DHT22;14206;50.202;10.948;2023-04-24T12:17:45;14.40;67.90
26541;DHT22;14206;50.202;10.948;2023-04-24T12:20:13;14.30;68.00
26541;DHT22;14206;50.202;10.948;2023-04-24T12:25:18;14.10;69.20
26541;DHT22;14206;50.202;10.948;2023-04-24T12:27:46;13.90;70.00
26541;DHT22;14206;50.202;10.948;2023-04-24T12:30:15;13.70;70.70
26541;DHT22;14206;50.202;10.948;2023-04-24T12:32:44;13.70;70.00
26541;DHT22;14206;50.202;10.948;2023-04-24T12:35:12;14.10;70.10
26541;DHT22;14206;50.202;10.948;2023-04-24T12:37:42;14.50;69.70
26541;DHT22;14206;50.202;10.948;2023-04-24T12:40:13;14.70;68.80
26541;DHT22;14206;50.202;10.948;2023-04-24T12:42:45;14.60;68.30
26541;DHT22;14206;50.202;10.948;2023-04-24T12:45:13;14.80;69.00
26541;DHT22;14206;50.202;10.948;2023-04-24T12:47:41;15.00;68.30
26541;DHT22;14206;50.202;10.948;2023-04-24T12:50:10;15.30;67.90
26541;DHT22;14206;50.202;10.948;2023-04-24T12:52:38;15.80;67.80
26541;DHT22;14206;50.202;10.948;2023-04-24T12:55:06;16.90;67.30
26541;DHT22;14206;50.202;10.948;2023-04-24T12:57:35;18.00;66.00
26541;DHT22;14206;50.202;10.948;2023-04-24T13:00:04;18.90;64.20
26541;DHT22;14206;50.202;10.948;2023-04-24T13:02:33;18.80;60.50
26541;DHT22;14206;50.202;10.948;2023-04-24T13:05:01;18.60;60.60
26541;DHT22;14206;50.202;10.948;2023-04-24T13:07:28;18.10;62.10
26541;DHT22;14206;50.202;10.948;2023-04-24T13:09:56;18.00;62.50
26541;DHT22;14206;50.202;10.948;2023-04-24T13:12:24;17.70;62.00
26541;DHT22;14206;50.202;10.948;2023-04-24T13:14:52;17.40;62.70
26541;DHT22;14206;50.202;10.948;2023-04-24T13:17:19;16.90;62.80
26541;DHT22;14206;50.202;10.948;2023-04-24T13:19:50;16.30;64.60
26541;DHT22;14206;50.202;10.948;2023-04-24T13:22:18;15.70;66.50
26541;DHT22;14206;50.202;10.948;2023-04-24T13:24:47;15.30;66.40
26541;DHT22;14206;50.202;10.948;2023-04-24T13:27:18;14.90;67.70
26541;DHT22;14206;50.202;10.948;2023-04-24T13:29:45;14.60;69.00
26541;DHT22;14206;50.202;10.948;2023-04-24T13:32:12;14.50;70.20
26541;DHT22;14206;50.202;10.948;2023-04-24T13:34:39;14.50;69.30
26541;DHT22;14206;50.202;10.948;2023-04-24T13:37:06;14.60;69.60
26541;DHT22;14206;50.202;10.948;2023-04-24T13:39:34;14.90;69.40
26541;DHT22;14206;50.202;10.948;2023-04-24T13:42:02;15.20;68.30
26541;DHT22;14206;50.202;10.948;2023-04-24T13:44:31;15.50;67.50
26541;DHT22;14206;50.202;10.948;2023-04-24T13:46:58;15.50;67.10
26541;DHT22;14206;50.202;10.948;2023-04-24T13:49:25;15.50;66.50
26541;DHT22;14206;50.202;10.948;2023-04-24T13:51:54;15.50;68.30
26541;DHT22;14206;50.202;10.948;2023-04-24T13:54:21;15.40;66.50
26541;DHT22;14206;50.202;10.948;2023-04-24T13:56:49;15.20;66.70
26541;DHT22;14206;50.202;10.948;2023-04-24T13:59:17;14.90;67.70
26541;DHT22;14206;50.202;10.948;2023-04-24T14:01:45;14.80;68.50
26541;DHT22;14206;50.202;10.948;2023-04-24T14:04:12;14.60;69.70
26541;DHT22;14206;50.202;10.948;2023-04-24T14:06:40;14.60;71.30
26541;DHT22;14206;50.202;10.948;2023-04-24T14:09:06;14.80;70.80
26541;DHT22;14206;50.202;10.948;2023-04-24T14:11:34;14.70;69.80
26541;DHT22;14206;50.202;10.948;2023-04-24T14:14:01;14.70;69.10
26541;DHT22;14206;50.202;10.948;2023-04-24T14:16:28;14.60;69.50
26541;DHT22;14206;50.202;10.948;2023-04-24T14:18:55;14.60;69.90
26541;DHT22;14206;50.202;10.948;2023-04-24T14:21:22;14.70;69.90
26541;DHT22;14206;50.202;10.948;2023-04-24T14:23:49;14.90;69.90
26541;DHT22;14206;50.202;10.948;2023-04-24T14:26:16;15.20;68.90
26541;DHT22;14206;50.202;10.948;2023-04-24T14:28:43;15.30;67.40
26541;DHT22;14206;50.202;10.948;2023-04-24T14:31:11;15.40;67.00
26541;DHT22;14206;50.202;10.948;2023-04-24T14:33:38;15.50;67.00
26541;DHT22;14206;50.202;10.948;2023-04-24T14:36:05;15.40;67.40
26541;DHT22;14206;50.202;10.948;2023-04-24T14:38:32;15.40;67.40
26541;DHT22;14206;50.202;10.948;2023-04-24T14:40:59;15.30;67.60
26541;DHT22;14206;50.202;10.948;2023-04-24T14:43:29;15.20;67.90
26541;DHT22;14206;50.202;10.948;2023-04-24T14:45:56;15.20;68.00
26541;DHT22;14206;50.202;10.948;2023-04-24T14:48:23;15.30;68.10
26541;DHT22;14206;50.202;10.948;2023-04-24T14:50:49;15.30;69.10
26541;DHT22;14206;50.202;10.948;2023-04-24T14:53:16;15.40;68.80
26541;DHT22;14206;50.202;10.948;2023-04-24T14:55:43;15.40;67.70
26541;DHT22;14206;50.202;10.948;2023-04-24T14:58:11;15.10;68.80
26541;DHT22;14206;50.202;10.948;2023-04-24T15:00:38;14.90;69.10
26541;DHT22;14206;50.202;10.948;2023-04-24T15:03:04;14.60;69.80
26541;DHT22;14206;50.202;10.948;2023-04-24T15:05:32;14.40;69.80
26541;DHT22;14206;50.202;10.948;2023-04-24T15:07:59;14.30;71.60
26541;DHT22;14206;50.202;10.948;2023-04-24T15:10:26;14.20;70.90
26541;DHT22;14206;50.202;10.948;2023-04-24T15:12:53;14.10;71.90
26541;DHT22;14206;50.202;10.948;2023-04-24T15:15:20;13.90;72.00
26541;DHT22;14206;50.202;10.948;2023-04-24T15:17:47;13.80;72.80
26541;DHT22;14206;50.202;10.948;2023-04-24T15:20:13;13.70;72.70
26541;DHT22;14206;50.202;10.948;2023-04-24T15:22:41;13.70;72.80
26541;DHT22;14206;50.202;10.948;2023-04-24T15:25:08;13.60;71.60
26541;DHT22;14206;50.202;10.948;2023-04-24T15:27:42;13.50;71.90
26541;DHT22;14206;50.202;10.948;2023-04-24T15:30:10;13.50;72.20
26541;DHT22;14206;50.202;10.948;2023-04-24T15:32:37;13.40;73.40
26541;DHT22;14206;50.202;10.948;2023-04-24T15:35:05;13.30;72.80
26541;DHT22;14206;50.202;10.948;2023-04-24T15:37:36;13.40;73.40
26541;DHT22;14206;50.202;10.948;2023-04-24T15:40:03;13.50;73.20
26541;DHT22;14206;50.202;10.948;2023-04-24T15:42:32;13.50;73.20
26541;DHT22;14206;50.202;10.948;2023-04-24T15:44:59;13.60;72.20
26541;DHT22;14206;50.202;10.948;2023-04-24T15:47:25;13.70;72.70
26541;DHT22;14206;50.202;10.948;2023-04-24T15:49:53;13.70;72.80
26541;DHT22;14206;50.202;10.948;2023-04-24T15:52:20;13.70;73.20
26541;DHT22;14206;50.202;10.948;2023-04-24T15:54:47;13.80;72.90